^^
Station Historical Data
Daily Summary for November 25, 2017 Units:  Both    English   Metric
« Previous Day
Next Day »
Daily Weekly Monthly Yearly Custom
  High: Low: Average:
Temperature: TemperatureF °F /  -17.8 °C 66.4 °F /  19.1 °C 78.7 °F /  25.9 °C
Dew Point: DewpointF °F /  -17.8 °C 13.1 °F /  -10.5 °C 26.4 °F /  -3.1 °C
Humidity: Humidity% 7% 16%
Wind Speed: WindSpeedMPHmph /  0km/h - 2.5mph /  4km/h
Wind Gust: WindSpeedGustMPHmph /  0km/h - -
Wind- - South
Pressure: PressureIn in /  0 hPa 29.59 in /  1001.9 hPa -
Precipitation: 0.00 in /  0 mm    
Historical Graphs
 
 
Tabular Data for November 25, 2017
Time Temperature Dew Point Pressure Wind Wind Speed Wind Gust Humidity Rainfall Rate (Hourly) solar Conditions
TemperatureF °F /  -17.8 °C DewpointF °F /  -17.8 °C PressureInin /  0hPa Calm     Humidity% HourlyPrecipInin /  0mm SolarRadiationWatts/m^2 W/m2 Conditions
00:01 70.9 °F /  21.6 °C 25.3 °F /  -3.7 °C 29.76in /  1007.7hPa Calm   2.0mph /  3.2km/h 18% 0.00in /  0mm 0.0 W/m2
00:06 70.7 °F /  21.5 °C 25.2 °F /  -3.8 °C 29.77in /  1008hPa Calm   3.0mph /  4.8km/h 18% 0.00in /  0mm 0.0 W/m2
00:11 70.7 °F /  21.5 °C 25.2 °F /  -3.8 °C 29.76in /  1007.7hPa SSE 0.9mph /  1.4km/h 3.0mph /  4.8km/h 18% 0.00in /  0mm 0.0 W/m2
00:17 70.7 °F /  21.5 °C 23.7 °F /  -4.6 °C 29.76in /  1007.7hPa Calm   3.0mph /  4.8km/h 17% 0.00in /  0mm 0.0 W/m2
00:22 70.9 °F /  21.6 °C 23.9 °F /  -4.5 °C 29.76in /  1007.7hPa Calm   3.0mph /  4.8km/h 17% 0.00in /  0mm 0.0 W/m2
00:27 70.9 °F /  21.6 °C 23.9 °F /  -4.5 °C 29.76in /  1007.7hPa Calm   4.0mph /  6.4km/h 17% 0.00in /  0mm 0.0 W/m2
00:32 71.1 °F /  21.7 °C 24.1 °F /  -4.4 °C 29.76in /  1007.7hPa SE 6.9mph /  11.1km/h 7.0mph /  11.3km/h 17% 0.00in /  0mm 0.0 W/m2
00:37 71.1 °F /  21.7 °C 24.1 °F /  -4.4 °C 29.76in /  1007.7hPa Calm   1.0mph /  1.6km/h 17% 0.00in /  0mm 0.0 W/m2
00:42 71.1 °F /  21.7 °C 24.1 °F /  -4.4 °C 29.76in /  1007.7hPa SSW 2.0mph /  3.2km/h 6.0mph /  9.7km/h 17% 0.00in /  0mm 0.0 W/m2
00:47 71.1 °F /  21.7 °C 24.1 °F /  -4.4 °C 29.75in /  1007.3hPa Calm   6.0mph /  9.7km/h 17% 0.00in /  0mm 0.0 W/m2
00:53 71.1 °F /  21.7 °C 24.1 °F /  -4.4 °C 29.75in /  1007.3hPa ESE 6.0mph /  9.7km/h 7.0mph /  11.3km/h 17% 0.00in /  0mm 0.0 W/m2
00:58 70.9 °F /  21.6 °C 23.9 °F /  -4.5 °C 29.75in /  1007.3hPa Calm   6.0mph /  9.7km/h 17% 0.00in /  0mm 0.0 W/m2
01:03 70.9 °F /  21.6 °C 23.9 °F /  -4.5 °C 29.75in /  1007.3hPa SSE 2.0mph /  3.2km/h 4.0mph /  6.4km/h 17% 0.00in /  0mm 0.0 W/m2
01:09 70.9 °F /  21.6 °C 23.9 °F /  -4.5 °C 29.75in /  1007.3hPa SSW 2.9mph /  4.7km/h 5.0mph /  8km/h 17% 0.00in /  0mm 0.0 W/m2
01:14 70.7 °F /  21.5 °C 23.7 °F /  -4.6 °C 29.75in /  1007.3hPa South 2.0mph /  3.2km/h 10.0mph /  16.1km/h 17% 0.00in /  0mm 0.0 W/m2
01:19 70.5 °F /  21.4 °C 23.5 °F /  -4.7 °C 29.75in /  1007.3hPa SE 4.0mph /  6.4km/h 10.0mph /  16.1km/h 17% 0.00in /  0mm 0.0 W/m2
01:24 70.5 °F /  21.4 °C 23.5 °F /  -4.7 °C 29.75in /  1007.3hPa SSW 2.9mph /  4.7km/h 6.0mph /  9.7km/h 17% 0.00in /  0mm 0.0 W/m2
01:26 70.5 °F /  21.4 °C 23.5 °F /  -4.7 °C 29.75in /  1007.3hPa SSE 4.0mph /  6.4km/h 7.0mph /  11.3km/h 17% 0.00in /  0mm 0.0 W/m2
01:31 70.5 °F /  21.4 °C 23.5 °F /  -4.7 °C 29.75in /  1007.3hPa SSE 4.9mph /  7.9km/h 7.0mph /  11.3km/h 17% 0.00in /  0mm 0.0 W/m2
01:36 70.3 °F /  21.3 °C 23.5 °F /  -4.7 °C 29.75in /  1007.3hPa Calm   4.0mph /  6.4km/h 17% 0.00in /  0mm 0.0 W/m2
01:41 70.2 °F /  21.2 °C 23.4 °F /  -4.8 °C 29.75in /  1007.3hPa Calm   6.0mph /  9.7km/h 17% 0.00in /  0mm 0.0 W/m2
01:46 70.2 °F /  21.2 °C 23.4 °F /  -4.8 °C 29.75in /  1007.3hPa ESE 2.9mph /  4.7km/h 4.0mph /  6.4km/h 17% 0.00in /  0mm 0.0 W/m2
01:51 70.2 °F /  21.2 °C 23.4 °F /  -4.8 °C 29.75in /  1007.3hPa SSE 4.9mph /  7.9km/h 15.0mph /  24.1km/h 17% 0.00in /  0mm 0.0 W/m2
01:56 70.5 °F /  21.4 °C 23.5 °F /  -4.7 °C 29.75in /  1007.3hPa SSE 4.0mph /  6.4km/h 12.0mph /  19.3km/h 17% 0.00in /  0mm 0.0 W/m2
02:02 70.9 °F /  21.6 °C 23.9 °F /  -4.5 °C 29.75in /  1007.3hPa Calm   6.0mph /  9.7km/h 17% 0.00in /  0mm 0.0 W/m2
02:07 71.1 °F /  21.7 °C 24.1 °F /  -4.4 °C 29.75in /  1007.3hPa ESE 2.0mph /  3.2km/h 8.0mph /  12.9km/h 17% 0.00in /  0mm 0.0 W/m2
02:12 71.1 °F /  21.7 °C 24.1 °F /  -4.4 °C 29.74in /  1007hPa SSW 4.0mph /  6.4km/h 11.0mph /  17.7km/h 17% 0.00in /  0mm 0.0 W/m2
02:17 70.9 °F /  21.6 °C 23.9 °F /  -4.5 °C 29.74in /  1007hPa Calm   2.0mph /  3.2km/h 17% 0.00in /  0mm 0.0 W/m2
02:22 70.7 °F /  21.5 °C 23.7 °F /  -4.6 °C 29.74in /  1007hPa Calm   6.0mph /  9.7km/h 17% 0.00in /  0mm 0.0 W/m2
02:27 70.5 °F /  21.4 °C 25.0 °F /  -3.9 °C 29.74in /  1007hPa SE 2.0mph /  3.2km/h 4.0mph /  6.4km/h 18% 0.00in /  0mm 0.0 W/m2
02:32 70.5 °F /  21.4 °C 25.0 °F /  -3.9 °C 29.74in /  1007hPa SSE 2.0mph /  3.2km/h 9.0mph /  14.5km/h 18% 0.00in /  0mm 0.0 W/m2
02:37 70.3 °F /  21.3 °C 24.8 °F /  -4 °C 29.74in /  1007hPa SSE 2.0mph /  3.2km/h 8.0mph /  12.9km/h 18% 0.00in /  0mm 0.0 W/m2
02:43 70.2 °F /  21.2 °C 24.6 °F /  -4.1 °C 29.73in /  1006.7hPa SE 4.9mph /  7.9km/h 7.0mph /  11.3km/h 18% 0.00in /  0mm 0.0 W/m2
02:48 70.2 °F /  21.2 °C 26.1 °F /  -3.3 °C 29.73in /  1006.7hPa SE 4.0mph /  6.4km/h 9.0mph /  14.5km/h 19% 0.00in /  0mm 0.0 W/m2
02:54 70.0 °F /  21.1 °C 25.9 °F /  -3.4 °C 29.74in /  1007hPa SE 2.9mph /  4.7km/h 8.0mph /  12.9km/h 19% 0.00in /  0mm 0.0 W/m2
02:59 70.0 °F /  21.1 °C 25.9 °F /  -3.4 °C 29.73in /  1006.7hPa SE 6.0mph /  9.7km/h 9.0mph /  14.5km/h 19% 0.00in /  0mm 0.0 W/m2
03:04 69.8 °F /  21 °C 25.7 °F /  -3.5 °C 29.73in /  1006.7hPa SSE 0.9mph /  1.4km/h 6.0mph /  9.7km/h 19% 0.00in /  0mm 0.0 W/m2
03:09 69.6 °F /  20.9 °C 25.5 °F /  -3.6 °C 29.74in /  1007hPa SSE 8.1mph /  13km/h 9.0mph /  14.5km/h 19% 0.00in /  0mm 0.0 W/m2
03:14 69.4 °F /  20.8 °C 26.6 °F /  -3 °C 29.74in /  1007hPa Calm   6.0mph /  9.7km/h 20% 0.00in /  0mm 0.0 W/m2
03:19 69.3 °F /  20.7 °C 26.4 °F /  -3.1 °C 29.73in /  1006.7hPa SE 2.0mph /  3.2km/h 3.0mph /  4.8km/h 20% 0.00in /  0mm 0.0 W/m2
03:24 69.3 °F /  20.7 °C 27.7 °F /  -2.4 °C 29.73in /  1006.7hPa SE 4.9mph /  7.9km/h 5.0mph /  8km/h 21% 0.00in /  0mm 0.0 W/m2
03:29 69.1 °F /  20.6 °C 28.6 °F /  -1.9 °C 29.73in /  1006.7hPa SE 8.9mph /  14.3km/h 9.0mph /  14.5km/h 22% 0.00in /  0mm 0.0 W/m2
03:34 69.1 °F /  20.6 °C 28.6 °F /  -1.9 °C 29.73in /  1006.7hPa Calm   2.0mph /  3.2km/h 22% 0.00in /  0mm 0.0 W/m2
03:39 68.7 °F /  20.4 °C 28.4 °F /  -2 °C 29.73in /  1006.7hPa SW 6.0mph /  9.7km/h 6.0mph /  9.7km/h 22% 0.00in /  0mm 0.0 W/m2
03:44 68.5 °F /  20.3 °C 28.2 °F /  -2.1 °C 29.73in /  1006.7hPa SW 2.0mph /  3.2km/h 7.0mph /  11.3km/h 22% 0.00in /  0mm 0.0 W/m2
03:50 68.5 °F /  20.3 °C 29.3 °F /  -1.5 °C 29.73in /  1006.7hPa Calm   3.0mph /  4.8km/h 23% 0.00in /  0mm 0.0 W/m2
03:55 68.5 °F /  20.3 °C 29.3 °F /  -1.5 °C 29.73in /  1006.7hPa Calm   1.0mph /  1.6km/h 23% 0.00in /  0mm 0.0 W/m2
04:00 68.4 °F /  20.2 °C 28.0 °F /  -2.2 °C 29.73in /  1006.7hPa Calm     22% 0.00in /  0mm 0.0 W/m2
04:07 67.6 °F /  19.8 °C 27.5 °F /  -2.5 °C 29.73in /  1006.7hPa Calm     22% 0.00in /  0mm 0.0 W/m2
04:12 67.3 °F /  19.6 °C 29.3 °F /  -1.5 °C 29.73in /  1006.7hPa ESE 4.9mph /  7.9km/h 7.0mph /  11.3km/h 24% 0.00in /  0mm 0.0 W/m2
04:17 67.3 °F /  19.6 °C 30.2 °F /  -1 °C 29.73in /  1006.7hPa SSE 2.9mph /  4.7km/h 8.0mph /  12.9km/h 25% 0.00in /  0mm 0.0 W/m2
04:22 67.5 °F /  19.7 °C 30.4 °F /  -0.9 °C 29.73in /  1006.7hPa Calm   3.0mph /  4.8km/h 25% 0.00in /  0mm 0.0 W/m2
04:27 67.5 °F /  19.7 °C 29.5 °F /  -1.4 °C 29.73in /  1006.7hPa SE 2.9mph /  4.7km/h 4.0mph /  6.4km/h 24% 0.00in /  0mm 0.0 W/m2
04:33 67.5 °F /  19.7 °C 29.5 °F /  -1.4 °C 29.73in /  1006.7hPa South 2.9mph /  4.7km/h 6.0mph /  9.7km/h 24% 0.00in /  0mm 0.0 W/m2
04:38 67.5 °F /  19.7 °C 29.5 °F /  -1.4 °C 29.73in /  1006.7hPa SE 0.9mph /  1.4km/h 6.0mph /  9.7km/h 24% 0.00in /  0mm 0.0 W/m2
04:43 67.3 °F /  19.6 °C 29.3 °F /  -1.5 °C 29.73in /  1006.7hPa SSE 10.1mph /  16.3km/h 10.1mph /  16.3km/h 24% 0.00in /  0mm 0.0 W/m2
04:48 67.5 °F /  19.7 °C 29.5 °F /  -1.4 °C 29.72in /  1006.3hPa SSE 6.9mph /  11.1km/h 9.0mph /  14.5km/h 24% 0.00in /  0mm 0.0 W/m2
04:58 67.6 °F /  19.8 °C 29.5 °F /  -1.4 °C 29.72in /  1006.3hPa ESE 4.0mph /  6.4km/h 14.0mph /  22.5km/h 24% 0.00in /  0mm 0.0 W/m2
05:03 68.0 °F /  20 °C 29.8 °F /  -1.2 °C 29.72in /  1006.3hPa SSE 6.0mph /  9.7km/h 13.0mph /  20.9km/h 24% 0.00in /  0mm 0.0 W/m2
05:09 68.2 °F /  20.1 °C 30.0 °F /  -1.1 °C 29.72in /  1006.3hPa ESE 8.1mph /  13km/h 9.0mph /  14.5km/h 24% 0.00in /  0mm 0.0 W/m2
05:18 68.0 °F /  20 °C 29.8 °F /  -1.2 °C 29.72in /  1006.3hPa SSE 2.9mph /  4.7km/h 7.0mph /  11.3km/h 24% 0.00in /  0mm 0.0 W/m2
05:23 67.8 °F /  19.9 °C 29.7 °F /  -1.3 °C 29.72in /  1006.3hPa SE 6.0mph /  9.7km/h 9.0mph /  14.5km/h 24% 0.00in /  0mm 0.0 W/m2
05:27 67.8 °F /  19.9 °C 29.7 °F /  -1.3 °C 29.72in /  1006.3hPa South 6.9mph /  11.1km/h 7.0mph /  11.3km/h 24% 0.00in /  0mm 0.0 W/m2
05:29 67.6 °F /  19.8 °C 29.5 °F /  -1.4 °C 29.72in /  1006.3hPa SSE 6.9mph /  11.1km/h 8.0mph /  12.9km/h 24% 0.00in /  0mm 0.0 W/m2
05:34 67.6 °F /  19.8 °C 29.5 °F /  -1.4 °C 29.72in /  1006.3hPa SSE 4.9mph /  7.9km/h 5.0mph /  8km/h 24% 0.00in /  0mm 0.0 W/m2
05:39 67.6 °F /  19.8 °C 30.6 °F /  -0.8 °C 29.72in /  1006.3hPa SE 0.9mph /  1.4km/h 7.0mph /  11.3km/h 25% 0.00in /  0mm 0.0 W/m2
05:44 67.5 °F /  19.7 °C 30.4 °F /  -0.9 °C 29.72in /  1006.3hPa Calm   4.0mph /  6.4km/h 25% 0.00in /  0mm 0.0 W/m2
05:49 67.5 °F /  19.7 °C 30.4 °F /  -0.9 °C 29.72in /  1006.3hPa Calm   1.0mph /  1.6km/h 25% 0.00in /  0mm 0.0 W/m2
05:54 67.1 °F /  19.5 °C 30.0 °F /  -1.1 °C 29.72in /  1006.3hPa Calm     25% 0.00in /  0mm 0.0 W/m2
05:59 66.7 °F /  19.3 °C 29.8 °F /  -1.2 °C 29.72in /  1006.3hPa Calm   2.0mph /  3.2km/h 25% 0.00in /  0mm 0.0 W/m2
06:04 66.4 °F /  19.1 °C 29.5 °F /  -1.4 °C 29.72in /  1006.3hPa SSW 4.0mph /  6.4km/h 6.0mph /  9.7km/h 25% 0.00in /  0mm 7.0 W/m2
06:10 66.4 °F /  19.1 °C 29.5 °F /  -1.4 °C 29.72in /  1006.3hPa SSE 2.0mph /  3.2km/h 6.0mph /  9.7km/h 25% 0.00in /  0mm 9.0 W/m2
06:11 66.4 °F /  19.1 °C 30.4 °F /  -0.9 °C 29.72in /  1006.3hPa SE 4.0mph /  6.4km/h 6.0mph /  9.7km/h 26% 0.00in /  0mm 11.0 W/m2
06:16 66.6 °F /  19.2 °C 30.6 °F /  -0.8 °C 29.72in /  1006.3hPa SSW 4.0mph /  6.4km/h 7.0mph /  11.3km/h 26% 0.00in /  0mm 12.0 W/m2
06:21 66.6 °F /  19.2 °C 29.7 °F /  -1.3 °C 29.72in /  1006.3hPa ESE 4.0mph /  6.4km/h 5.0mph /  8km/h 25% 0.00in /  0mm 14.0 W/m2
06:27 66.7 °F /  19.3 °C 29.8 °F /  -1.2 °C 29.72in /  1006.3hPa SE 0.9mph /  1.4km/h 6.0mph /  9.7km/h 25% 0.00in /  0mm 14.0 W/m2
06:32 66.9 °F /  19.4 °C 30.0 °F /  -1.1 °C 29.72in /  1006.3hPa Calm   4.0mph /  6.4km/h 25% 0.00in /  0mm 19.0 W/m2
06:37 66.9 °F /  19.4 °C 30.0 °F /  -1.1 °C 29.73in /  1006.7hPa Calm   2.0mph /  3.2km/h 25% 0.00in /  0mm 21.0 W/m2
06:42 66.9 °F /  19.4 °C 30.9 °F /  -0.6 °C 29.73in /  1006.7hPa SSW 2.9mph /  4.7km/h 5.0mph /  8km/h 26% 0.00in /  0mm 23.0 W/m2
06:48 66.9 °F /  19.4 °C 30.9 °F /  -0.6 °C 29.73in /  1006.7hPa SSE 0.9mph /  1.4km/h 5.0mph /  8km/h 26% 0.00in /  0mm 25.0 W/m2
06:53 66.9 °F /  19.4 °C 30.9 °F /  -0.6 °C 29.73in /  1006.7hPa SE 2.0mph /  3.2km/h 5.0mph /  8km/h 26% 0.00in /  0mm 26.0 W/m2
07:00 66.9 °F /  19.4 °C 30.9 °F /  -0.6 °C 29.73in /  1006.7hPa Calm   4.0mph /  6.4km/h 26% 0.00in /  0mm 28.0 W/m2
07:05 67.1 °F /  19.5 °C 31.1 °F /  -0.5 °C 29.73in /  1006.7hPa SSE 2.0mph /  3.2km/h 8.0mph /  12.9km/h 26% 0.00in /  0mm 28.0 W/m2
07:10 67.3 °F /  19.6 °C 30.2 °F /  -1 °C 29.73in /  1006.7hPa SE 2.9mph /  4.7km/h 9.0mph /  14.5km/h 25% 0.00in /  0mm 32.0 W/m2
07:15 67.3 °F /  19.6 °C 30.2 °F /  -1 °C 29.73in /  1006.7hPa South 4.0mph /  6.4km/h 6.0mph /  9.7km/h 25% 0.00in /  0mm 33.0 W/m2
07:20 67.5 °F /  19.7 °C 30.4 °F /  -0.9 °C 29.74in /  1007hPa SSW 2.9mph /  4.7km/h 5.0mph /  8km/h 25% 0.00in /  0mm 186.0 W/m2
07:26 67.6 °F /  19.8 °C 29.5 °F /  -1.4 °C 29.74in /  1007hPa South 4.9mph /  7.9km/h 8.0mph /  12.9km/h 24% 0.00in /  0mm 292.0 W/m2
07:31 68.2 °F /  20.1 °C 30.0 °F /  -1.1 °C 29.74in /  1007hPa SE 12.1mph /  19.5km/h 15.0mph /  24.1km/h 24% 0.00in /  0mm 316.0 W/m2
07:37 68.4 °F /  20.2 °C 29.1 °F /  -1.6 °C 29.74in /  1007hPa SSW 0.9mph /  1.4km/h 10.0mph /  16.1km/h 23% 0.00in /  0mm 338.0 W/m2
07:42 68.7 °F /  20.4 °C 29.5 °F /  -1.4 °C 29.74in /  1007hPa SSW 4.9mph /  7.9km/h 9.0mph /  14.5km/h 23% 0.00in /  0mm 362.0 W/m2
07:47 69.3 °F /  20.7 °C 29.8 °F /  -1.2 °C 29.74in /  1007hPa SSE 0.9mph /  1.4km/h 8.0mph /  12.9km/h 23% 0.00in /  0mm 385.0 W/m2
07:52 69.6 °F /  20.9 °C 30.2 °F /  -1 °C 29.74in /  1007hPa SE 2.9mph /  4.7km/h 7.0mph /  11.3km/h 23% 0.00in /  0mm 408.0 W/m2
07:57 70.0 °F /  21.1 °C 29.3 °F /  -1.5 °C 29.74in /  1007hPa SW 0.9mph /  1.4km/h 4.0mph /  6.4km/h 22% 0.00in /  0mm 427.0 W/m2
08:02 70.5 °F /  21.4 °C 29.8 °F /  -1.2 °C 29.74in /  1007hPa Calm   5.0mph /  8km/h 22% 0.00in /  0mm 445.0 W/m2
08:07 71.1 °F /  21.7 °C 30.2 °F /  -1 °C 29.74in /  1007hPa SSE 4.0mph /  6.4km/h 6.0mph /  9.7km/h 22% 0.00in /  0mm 468.0 W/m2
08:12 71.6 °F /  22 °C 30.7 °F /  -0.7 °C 29.74in /  1007hPa SSE 2.0mph /  3.2km/h 4.0mph /  6.4km/h 22% 0.00in /  0mm 489.0 W/m2
08:17 72.1 °F /  22.3 °C 30.0 °F /  -1.1 °C 29.73in /  1006.7hPa Calm   7.0mph /  11.3km/h 21% 0.00in /  0mm 506.0 W/m2
08:22 72.7 °F /  22.6 °C 30.6 °F /  -0.8 °C 29.73in /  1006.7hPa SE 2.0mph /  3.2km/h 7.0mph /  11.3km/h 21% 0.00in /  0mm 527.0 W/m2
08:28 73.6 °F /  23.1 °C 30.0 °F /  -1.1 °C 29.73in /  1006.7hPa SSE 2.0mph /  3.2km/h 8.0mph /  12.9km/h 20% 0.00in /  0mm 547.0 W/m2
08:33 74.5 °F /  23.6 °C 29.5 °F /  -1.4 °C 29.73in /  1006.7hPa SE 6.0mph /  9.7km/h 12.0mph /  19.3km/h 19% 0.00in /  0mm 566.0 W/m2
08:38 75.0 °F /  23.9 °C 28.6 °F /  -1.9 °C 29.74in /  1007hPa SE 4.0mph /  6.4km/h 9.0mph /  14.5km/h 18% 0.00in /  0mm 585.0 W/m2
08:43 75.6 °F /  24.2 °C 27.7 °F /  -2.4 °C 29.74in /  1007hPa ESE 4.0mph /  6.4km/h 10.0mph /  16.1km/h 17% 0.00in /  0mm 603.0 W/m2
08:48 75.7 °F /  24.3 °C 27.9 °F /  -2.3 °C 29.74in /  1007hPa SSE 8.9mph /  14.3km/h 10.0mph /  16.1km/h 17% 0.00in /  0mm 621.0 W/m2
08:53 76.1 °F /  24.5 °C 28.0 °F /  -2.2 °C 29.74in /  1007hPa SE 4.0mph /  6.4km/h 9.0mph /  14.5km/h 17% 0.00in /  0mm 642.0 W/m2
08:58 76.3 °F /  24.6 °C 28.2 °F /  -2.1 °C 29.74in /  1007hPa SSW 4.9mph /  7.9km/h 7.0mph /  11.3km/h 17% 0.00in /  0mm 659.0 W/m2
09:03 76.6 °F /  24.8 °C 27.1 °F /  -2.7 °C 29.74in /  1007hPa ESE 4.9mph /  7.9km/h 8.0mph /  12.9km/h 16% 0.00in /  0mm 675.0 W/m2
09:08 77.0 °F /  25 °C 28.8 °F /  -1.8 °C 29.74in /  1007hPa ESE 2.0mph /  3.2km/h 6.0mph /  9.7km/h 17% 0.00in /  0mm 696.0 W/m2
09:14 77.5 °F /  25.3 °C 27.9 °F /  -2.3 °C 29.74in /  1007hPa SE 2.9mph /  4.7km/h 7.0mph /  11.3km/h 16% 0.00in /  0mm 714.0 W/m2
09:19 78.3 °F /  25.7 °C 26.8 °F /  -2.9 °C 29.74in /  1007hPa Calm   4.0mph /  6.4km/h 15% 0.00in /  0mm 728.0 W/m2
09:24 78.4 °F /  25.8 °C 27.0 °F /  -2.8 °C 29.74in /  1007hPa Calm   3.0mph /  4.8km/h 15% 0.00in /  0mm 749.0 W/m2
09:29 79.2 °F /  26.2 °C 27.5 °F /  -2.5 °C 29.74in /  1007hPa SE 2.0mph /  3.2km/h 7.0mph /  11.3km/h 15% 0.00in /  0mm 765.0 W/m2
09:34 79.2 °F /  26.2 °C 29.1 °F /  -1.6 °C 29.74in /  1007hPa Calm   3.0mph /  4.8km/h 16% 0.00in /  0mm 784.0 W/m2
09:39 79.5 °F /  26.4 °C 26.1 °F /  -3.3 °C 29.74in /  1007hPa SSW 2.0mph /  3.2km/h 4.0mph /  6.4km/h 14% 0.00in /  0mm 798.0 W/m2
09:44 79.9 °F /  26.6 °C 26.4 °F /  -3.1 °C 29.74in /  1007hPa South 2.9mph /  4.7km/h 8.0mph /  12.9km/h 14% 0.00in /  0mm 814.0 W/m2
09:49 80.2 °F /  26.8 °C 26.8 °F /  -2.9 °C 29.74in /  1007hPa East 2.0mph /  3.2km/h 6.0mph /  9.7km/h 14% 0.00in /  0mm 828.0 W/m2
09:54 80.6 °F /  27 °C 25.2 °F /  -3.8 °C 29.73in /  1006.7hPa ENE 0.9mph /  1.4km/h 3.0mph /  4.8km/h 13% 0.00in /  0mm 844.0 W/m2
10:00 81.0 °F /  27.2 °C 25.5 °F /  -3.6 °C 29.74in /  1007hPa ENE 0.9mph /  1.4km/h 3.0mph /  4.8km/h 13% 0.00in /  0mm 858.0 W/m2
10:05 81.1 °F /  27.3 °C 25.7 °F /  -3.5 °C 29.73in /  1006.7hPa East 2.0mph /  3.2km/h 5.0mph /  8km/h 13% 0.00in /  0mm 874.0 W/m2
10:10 81.1 °F /  27.3 °C 25.7 °F /  -3.5 °C 29.73in /  1006.7hPa ESE 2.9mph /  4.7km/h 5.0mph /  8km/h 13% 0.00in /  0mm 888.0 W/m2
10:15 81.7 °F /  27.6 °C 26.1 °F /  -3.3 °C 29.73in /  1006.7hPa Calm   1.0mph /  1.6km/h 13% 0.00in /  0mm 902.0 W/m2
10:20 82.0 °F /  27.8 °C 24.4 °F /  -4.2 °C 29.73in /  1006.7hPa Calm   3.0mph /  4.8km/h 12% 0.00in /  0mm 919.0 W/m2
10:25 82.6 °F /  28.1 °C 26.8 °F /  -2.9 °C 29.73in /  1006.7hPa Calm   4.0mph /  6.4km/h 13% 0.00in /  0mm 926.0 W/m2
10:31 82.9 °F /  28.3 °C 25.2 °F /  -3.8 °C 29.72in /  1006.3hPa East 4.0mph /  6.4km/h 6.0mph /  9.7km/h 12% 0.00in /  0mm 944.0 W/m2
10:36 83.3 °F /  28.5 °C 25.3 °F /  -3.7 °C 29.72in /  1006.3hPa North 10.1mph /  16.3km/h 10.1mph /  16.3km/h 12% 0.00in /  0mm 954.0 W/m2
10:41 83.8 °F /  28.8 °C 25.9 °F /  -3.4 °C 29.72in /  1006.3hPa NNW 4.0mph /  6.4km/h 8.0mph /  12.9km/h 12% 0.00in /  0mm 965.0 W/m2
10:46 84.0 °F /  28.9 °C 25.9 °F /  -3.4 °C 29.72in /  1006.3hPa SE 4.0mph /  6.4km/h 10.0mph /  16.1km/h 12% 0.00in /  0mm 972.0 W/m2
10:51 84.4 °F /  29.1 °C 26.2 °F /  -3.2 °C 29.72in /  1006.3hPa NNW 0.9mph /  1.4km/h 7.0mph /  11.3km/h 12% 0.00in /  0mm 981.0 W/m2
10:57 84.6 °F /  29.2 °C 26.4 °F /  -3.1 °C 29.72in /  1006.3hPa NW 2.9mph /  4.7km/h 8.0mph /  12.9km/h 12% 0.00in /  0mm 991.0 W/m2
11:02 84.9 °F /  29.4 °C 26.6 °F /  -3 °C 29.72in /  1006.3hPa Calm   8.0mph /  12.9km/h 12% 0.00in /  0mm 1002.0 W/m2
11:07 84.9 °F /  29.4 °C 26.6 °F /  -3 °C 29.72in /  1006.3hPa North 4.0mph /  6.4km/h 6.0mph /  9.7km/h 12% 0.00in /  0mm 1011.0 W/m2
11:12 84.9 °F /  29.4 °C 24.6 °F /  -4.1 °C 29.72in /  1006.3hPa SW 2.0mph /  3.2km/h 4.0mph /  6.4km/h 11% 0.00in /  0mm 1018.0 W/m2
11:17 84.9 °F /  29.4 °C 26.6 °F /  -3 °C 29.72in /  1006.3hPa ENE 2.9mph /  4.7km/h 8.0mph /  12.9km/h 12% 0.00in /  0mm 1025.0 W/m2
11:22 85.3 °F /  29.6 °C 27.0 °F /  -2.8 °C 29.72in /  1006.3hPa NE 6.0mph /  9.7km/h 8.0mph /  12.9km/h 12% 0.00in /  0mm 1032.0 W/m2
11:27 85.3 °F /  29.6 °C 24.8 °F /  -4 °C 29.72in /  1006.3hPa ENE 0.9mph /  1.4km/h 6.0mph /  9.7km/h 11% 0.00in /  0mm 1037.0 W/m2
11:33 85.3 °F /  29.6 °C 24.8 °F /  -4 °C 29.72in /  1006.3hPa Calm   4.0mph /  6.4km/h 11% 0.00in /  0mm 1042.0 W/m2
11:38 85.5 °F /  29.7 °C 25.0 °F /  -3.9 °C 29.72in /  1006.3hPa SSE 6.0mph /  9.7km/h 6.0mph /  9.7km/h 11% 0.00in /  0mm 1048.0 W/m2
11:43 85.6 °F /  29.8 °C 25.2 °F /  -3.8 °C 29.72in /  1006.3hPa Calm   2.0mph /  3.2km/h 11% 0.00in /  0mm 1053.0 W/m2
11:48 85.8 °F /  29.9 °C 25.2 °F /  -3.8 °C 29.71in /  1006hPa NNW 4.0mph /  6.4km/h 4.0mph /  6.4km/h 11% 0.00in /  0mm 1056.0 W/m2
11:53 86.4 °F /  30.2 °C 27.7 °F /  -2.4 °C 29.71in /  1006hPa North 0.9mph /  1.4km/h 10.0mph /  16.1km/h 12% 0.00in /  0mm 1058.0 W/m2
11:59 86.9 °F /  30.5 °C 26.1 °F /  -3.3 °C 29.71in /  1006hPa WNW 0.9mph /  1.4km/h 8.0mph /  12.9km/h 11% 0.00in /  0mm 1065.0 W/m2
12:04 87.3 °F /  30.7 °C 26.4 °F /  -3.1 °C 29.71in /  1006hPa NNE 4.9mph /  7.9km/h 7.0mph /  11.3km/h 11% 0.00in /  0mm 1069.0 W/m2
12:09 87.3 °F /  30.7 °C 26.4 °F /  -3.1 °C 29.70in /  1005.6hPa NNW 2.9mph /  4.7km/h 8.0mph /  12.9km/h 11% 0.00in /  0mm 1072.0 W/m2
12:14 87.6 °F /  30.9 °C 26.6 °F /  -3 °C 29.70in /  1005.6hPa Calm   8.0mph /  12.9km/h 11% 0.00in /  0mm 1071.0 W/m2
12:20 88.3 °F /  31.3 °C 27.1 °F /  -2.7 °C 29.70in /  1005.6hPa NNE 6.0mph /  9.7km/h 10.0mph /  16.1km/h 11% 0.00in /  0mm 1074.0 W/m2
12:25 88.3 °F /  31.3 °C 27.1 °F /  -2.7 °C 29.70in /  1005.6hPa West 4.9mph /  7.9km/h 8.0mph /  12.9km/h 11% 0.00in /  0mm 1072.0 W/m2
12:30 88.3 °F /  31.3 °C 27.1 °F /  -2.7 °C 29.70in /  1005.6hPa WSW 2.0mph /  3.2km/h 6.0mph /  9.7km/h 11% 0.00in /  0mm 1074.0 W/m2
12:35 88.2 °F /  31.2 °C 27.0 °F /  -2.8 °C 29.70in /  1005.6hPa NW 0.9mph /  1.4km/h 4.0mph /  6.4km/h 11% 0.00in /  0mm 1074.0 W/m2
12:40 88.2 °F /  31.2 °C 27.0 °F /  -2.8 °C 29.70in /  1005.6hPa Calm   3.0mph /  4.8km/h 11% 0.00in /  0mm 1072.0 W/m2
12:45 87.8 °F /  31 °C 26.8 °F /  -2.9 °C 29.70in /  1005.6hPa SW 0.9mph /  1.4km/h 9.0mph /  14.5km/h 11% 0.00in /  0mm 1072.0 W/m2
12:50 87.3 °F /  30.7 °C 26.4 °F /  -3.1 °C 29.70in /  1005.6hPa ESE 0.9mph /  1.4km/h 3.0mph /  4.8km/h 11% 0.00in /  0mm 1069.0 W/m2
12:55 87.6 °F /  30.9 °C 28.8 °F /  -1.8 °C 29.69in /  1005.3hPa SSE 2.9mph /  4.7km/h 8.0mph /  12.9km/h 12% 0.00in /  0mm 1065.0 W/m2
13:01 88.5 °F /  31.4 °C 27.3 °F /  -2.6 °C 29.68in /  1005hPa WSW 2.9mph /  4.7km/h 6.0mph /  9.7km/h 11% 0.00in /  0mm 1056.0 W/m2
13:06 89.2 °F /  31.8 °C 27.9 °F /  -2.3 °C 29.68in /  1005hPa NNE 2.9mph /  4.7km/h 3.0mph /  4.8km/h 11% 0.00in /  0mm 1060.0 W/m2
13:11 89.8 °F /  32.1 °C 25.9 °F /  -3.4 °C 29.68in /  1005hPa SSE 2.0mph /  3.2km/h 5.0mph /  8km/h 10% 0.00in /  0mm 1058.0 W/m2
13:16 89.8 °F /  32.1 °C 28.2 °F /  -2.1 °C 29.67in /  1004.6hPa North 2.9mph /  4.7km/h 5.0mph /  8km/h 11% 0.00in /  0mm 1055.0 W/m2
13:21 90.5 °F /  32.5 °C 28.8 °F /  -1.8 °C 29.67in /  1004.6hPa NNW 6.9mph /  11.1km/h 10.0mph /  16.1km/h 11% 0.00in /  0mm 1051.0 W/m2
13:26 90.9 °F /  32.7 °C 26.8 °F /  -2.9 °C 29.67in /  1004.6hPa WSW 2.9mph /  4.7km/h 7.0mph /  11.3km/h 10% 0.00in /  0mm 1048.0 W/m2
13:31 90.7 °F /  32.6 °C 26.6 °F /  -3 °C 29.66in /  1004.3hPa West 2.0mph /  3.2km/h 7.0mph /  11.3km/h 10% 0.00in /  0mm 1041.0 W/m2
13:36 90.0 °F /  32.2 °C 28.4 °F /  -2 °C 29.66in /  1004.3hPa Calm   5.0mph /  8km/h 11% 0.00in /  0mm 1041.0 W/m2
13:42 90.7 °F /  32.6 °C 26.6 °F /  -3 °C 29.66in /  1004.3hPa West 0.9mph /  1.4km/h 9.0mph /  14.5km/h 10% 0.00in /  0mm 1028.0 W/m2
13:47 91.0 °F /  32.8 °C 24.4 °F /  -4.2 °C 29.66in /  1004.3hPa West 8.9mph /  14.3km/h 16.0mph /  25.7km/h 9% 0.00in /  0mm 1020.0 W/m2
13:52 90.1 °F /  32.3 °C 26.2 °F /  -3.2 °C 29.66in /  1004.3hPa West 2.9mph /  4.7km/h 8.0mph /  12.9km/h 10% 0.00in /  0mm 1013.0 W/m2
13:57 90.0 °F /  32.2 °C 26.1 °F /  -3.3 °C 29.65in /  1003.9hPa Calm   5.0mph /  8km/h 10% 0.00in /  0mm 1005.0 W/m2
14:02 90.1 °F /  32.3 °C 26.2 °F /  -3.2 °C 29.65in /  1003.9hPa South 2.9mph /  4.7km/h 7.0mph /  11.3km/h 10% 0.00in /  0mm 1000.0 W/m2
14:13 90.9 °F /  32.7 °C 24.3 °F /  -4.3 °C 29.65in /  1003.9hPa NE 4.0mph /  6.4km/h 6.0mph /  9.7km/h 9% 0.00in /  0mm 970.0 W/m2
14:18 91.0 °F /  32.8 °C 24.4 °F /  -4.2 °C 29.65in /  1003.9hPa SW 2.0mph /  3.2km/h 5.0mph /  8km/h 9% 0.00in /  0mm 967.0 W/m2
14:23 91.6 °F /  33.1 °C 24.8 °F /  -4 °C 29.64in /  1003.6hPa NNE 2.0mph /  3.2km/h 5.0mph /  8km/h 9% 0.00in /  0mm 963.0 W/m2
14:28 92.1 °F /  33.4 °C 25.2 °F /  -3.8 °C 29.64in /  1003.6hPa WNW 2.9mph /  4.7km/h 13.0mph /  20.9km/h 9% 0.00in /  0mm 947.0 W/m2
14:33 92.7 °F /  33.7 °C 25.5 °F /  -3.6 °C 29.64in /  1003.6hPa West 6.0mph /  9.7km/h 10.0mph /  16.1km/h 9% 0.00in /  0mm 937.0 W/m2
14:39 93.0 °F /  33.9 °C 25.9 °F /  -3.4 °C 29.63in /  1003.3hPa North 6.0mph /  9.7km/h 8.0mph /  12.9km/h 9% 0.00in /  0mm 923.0 W/m2
14:44 92.8 °F /  33.8 °C 25.7 °F /  -3.5 °C 29.63in /  1003.3hPa Calm   5.0mph /  8km/h 9% 0.00in /  0mm 911.0 W/m2
14:49 93.2 °F /  34 °C 26.1 °F /  -3.3 °C 29.63in /  1003.3hPa Calm   2.0mph /  3.2km/h 9% 0.00in /  0mm 896.0 W/m2
14:55 94.3 °F /  34.6 °C 23.9 °F /  -4.5 °C 29.62in /  1002.9hPa NW 2.9mph /  4.7km/h 7.0mph /  11.3km/h 8% 0.00in /  0mm 884.0 W/m2
15:00 94.5 °F /  34.7 °C 24.1 °F /  -4.4 °C 29.62in /  1002.9hPa Calm   3.0mph /  4.8km/h 8% 0.00in /  0mm 874.0 W/m2
15:05 94.5 °F /  34.7 °C 27.0 °F /  -2.8 °C 29.62in /  1002.9hPa West 0.9mph /  1.4km/h 7.0mph /  11.3km/h 9% 0.00in /  0mm 867.0 W/m2
15:06 94.6 °F /  34.8 °C 27.1 °F /  -2.7 °C 29.62in /  1002.9hPa WNW 6.9mph /  11.1km/h 7.0mph /  11.3km/h 9% 0.00in /  0mm 858.0 W/m2
15:12 94.3 °F /  34.6 °C 23.9 °F /  -4.5 °C 29.62in /  1002.9hPa SW 2.9mph /  4.7km/h 9.0mph /  14.5km/h 8% 0.00in /  0mm 840.0 W/m2
15:17 93.7 °F /  34.3 °C 26.4 °F /  -3.1 °C 29.62in /  1002.9hPa SSW 2.0mph /  3.2km/h 6.0mph /  9.7km/h 9% 0.00in /  0mm 856.0 W/m2
15:22 93.4 °F /  34.1 °C 26.1 °F /  -3.3 °C 29.61in /  1002.6hPa Calm   4.0mph /  6.4km/h 9% 0.00in /  0mm 807.0 W/m2
15:28 93.6 °F /  34.2 °C 26.2 °F /  -3.2 °C 29.61in /  1002.6hPa WNW 2.0mph /  3.2km/h 3.0mph /  4.8km/h 9% 0.00in /  0mm 803.0 W/m2
15:33 93.6 °F /  34.2 °C 26.2 °F /  -3.2 °C 29.61in /  1002.6hPa WSW 4.0mph /  6.4km/h 7.0mph /  11.3km/h 9% 0.00in /  0mm 777.0 W/m2
15:38 92.8 °F /  33.8 °C 25.7 °F /  -3.5 °C 29.60in /  1002.3hPa North 4.0mph /  6.4km/h 6.0mph /  9.7km/h 9% 0.00in /  0mm 768.0 W/m2
15:44 92.8 °F /  33.8 °C 25.7 °F /  -3.5 °C 29.60in /  1002.3hPa NNW 4.9mph /  7.9km/h 7.0mph /  11.3km/h 9% 0.00in /  0mm 758.0 W/m2
15:49 93.4 °F /  34.1 °C 26.1 °F /  -3.3 °C 29.60in /  1002.3hPa North 4.0mph /  6.4km/h 11.0mph /  17.7km/h 9% 0.00in /  0mm 759.0 W/m2
15:54 93.4 °F /  34.1 °C 26.1 °F /  -3.3 °C 29.61in /  1002.6hPa West 2.9mph /  4.7km/h 5.0mph /  8km/h 9% 0.00in /  0mm 728.0 W/m2
15:59 93.2 °F /  34 °C 26.1 °F /  -3.3 °C 29.60in /  1002.3hPa NNW 8.9mph /  14.3km/h 9.0mph /  14.5km/h 9% 0.00in /  0mm 708.0 W/m2
16:04 92.7 °F /  33.7 °C 25.5 °F /  -3.6 °C 29.60in /  1002.3hPa NW 8.9mph /  14.3km/h 11.0mph /  17.7km/h 9% 0.00in /  0mm 679.0 W/m2
16:10 92.5 °F /  33.6 °C 25.5 °F /  -3.6 °C 29.60in /  1002.3hPa NNW 2.0mph /  3.2km/h 6.0mph /  9.7km/h 9% 0.00in /  0mm 654.0 W/m2
16:15 92.8 °F /  33.8 °C 25.7 °F /  -3.5 °C 29.59in /  1001.9hPa Calm   5.0mph /  8km/h 9% 0.00in /  0mm 640.0 W/m2
16:20 93.2 °F /  34 °C 23.2 °F /  -4.9 °C 29.59in /  1001.9hPa NNE 4.0mph /  6.4km/h 9.0mph /  14.5km/h 8% 0.00in /  0mm 617.0 W/m2
16:26 93.4 °F /  34.1 °C 23.4 °F /  -4.8 °C 29.59in /  1001.9hPa SW 0.9mph /  1.4km/h 3.0mph /  4.8km/h 8% 0.00in /  0mm 599.0 W/m2
16:31 93.6 °F /  34.2 °C 26.2 °F /  -3.2 °C 29.59in /  1001.9hPa Calm   7.0mph /  11.3km/h 9% 0.00in /  0mm 582.0 W/m2
16:36 93.9 °F /  34.4 °C 23.7 °F /  -4.6 °C 29.59in /  1001.9hPa SE 0.9mph /  1.4km/h 6.0mph /  9.7km/h 8% 0.00in /  0mm 571.0 W/m2
16:42 93.7 °F /  34.3 °C 23.5 °F /  -4.7 °C 29.59in /  1001.9hPa WSW 0.9mph /  1.4km/h 9.0mph /  14.5km/h 8% 0.00in /  0mm 548.0 W/m2
16:47 93.6 °F /  34.2 °C 23.4 °F /  -4.8 °C 29.59in /  1001.9hPa WSW 4.0mph /  6.4km/h 7.0mph /  11.3km/h 8% 0.00in /  0mm 531.0 W/m2
16:52 93.0 °F /  33.9 °C 23.0 °F /  -5 °C 29.59in /  1001.9hPa South 2.9mph /  4.7km/h 5.0mph /  8km/h 8% 0.00in /  0mm 508.0 W/m2
16:57 92.8 °F /  33.8 °C 23.0 °F /  -5 °C 29.59in /  1001.9hPa South 2.0mph /  3.2km/h 6.0mph /  9.7km/h 8% 0.00in /  0mm 490.0 W/m2
17:02 93.4 °F /  34.1 °C 23.4 °F /  -4.8 °C 29.59in /  1001.9hPa SSE 2.9mph /  4.7km/h 6.0mph /  9.7km/h 8% 0.00in /  0mm 473.0 W/m2
17:08 93.7 °F /  34.3 °C 20.5 °F /  -6.4 °C 29.59in /  1001.9hPa SSE 0.9mph /  1.4km/h 6.0mph /  9.7km/h 7% 0.00in /  0mm 450.0 W/m2
17:13 93.6 °F /  34.2 °C 20.3 °F /  -6.5 °C 29.59in /  1001.9hPa SSW 4.0mph /  6.4km/h 7.0mph /  11.3km/h 7% 0.00in /  0mm 431.0 W/m2
17:18 93.6 °F /  34.2 °C 23.4 °F /  -4.8 °C 29.59in /  1001.9hPa South 6.9mph /  11.1km/h 7.0mph /  11.3km/h 8% 0.00in /  0mm 411.0 W/m2
17:23 93.7 °F /  34.3 °C 23.5 °F /  -4.7 °C 29.59in /  1001.9hPa SSW 2.0mph /  3.2km/h 7.0mph /  11.3km/h 8% 0.00in /  0mm 392.0 W/m2
17:28 93.2 °F /  34 °C 19.9 °F /  -6.7 °C 29.59in /  1001.9hPa SW 4.0mph /  6.4km/h 8.0mph /  12.9km/h 7% 0.00in /  0mm 371.0 W/m2
17:33 92.3 °F /  33.5 °C 22.5 °F /  -5.3 °C 29.59in /  1001.9hPa SSE 6.9mph /  11.1km/h 12.0mph /  19.3km/h 8% 0.00in /  0mm 350.0 W/m2
17:38 91.9 °F /  33.3 °C 22.3 °F /  -5.4 °C 29.59in /  1001.9hPa SE 6.9mph /  11.1km/h 9.0mph /  14.5km/h 8% 0.00in /  0mm 330.0 W/m2
17:44 91.9 °F /  33.3 °C 22.3 °F /  -5.4 °C 29.60in /  1002.3hPa Calm   8.0mph /  12.9km/h 8% 0.00in /  0mm 308.0 W/m2
17:49 92.1 °F /  33.4 °C 22.5 °F /  -5.3 °C 29.60in /  1002.3hPa SSW 2.9mph /  4.7km/h 3.0mph /  4.8km/h 8% 0.00in /  0mm 288.0 W/m2
17:54 91.9 °F /  33.3 °C 22.3 °F /  -5.4 °C 29.60in /  1002.3hPa SE 2.0mph /  3.2km/h 7.0mph /  11.3km/h 8% 0.00in /  0mm 267.0 W/m2
17:59 91.9 °F /  33.3 °C 22.3 °F /  -5.4 °C 29.60in /  1002.3hPa ESE 0.9mph /  1.4km/h 5.0mph /  8km/h 8% 0.00in /  0mm 248.0 W/m2
18:04 91.8 °F /  33.2 °C 22.1 °F /  -5.5 °C 29.60in /  1002.3hPa ESE 2.0mph /  3.2km/h 5.0mph /  8km/h 8% 0.00in /  0mm 229.0 W/m2
18:09 91.8 °F /  33.2 °C 22.1 °F /  -5.5 °C 29.61in /  1002.6hPa SW 2.9mph /  4.7km/h 3.0mph /  4.8km/h 8% 0.00in /  0mm 209.0 W/m2
18:14 91.6 °F /  33.1 °C 21.9 °F /  -5.6 °C 29.61in /  1002.6hPa SW 2.9mph /  4.7km/h 8.0mph /  12.9km/h 8% 0.00in /  0mm 190.0 W/m2
18:19 90.9 °F /  32.7 °C 21.4 °F /  -5.9 °C 29.61in /  1002.6hPa WSW 2.0mph /  3.2km/h 6.0mph /  9.7km/h 8% 0.00in /  0mm 102.0 W/m2
18:24 90.1 °F /  32.3 °C 17.8 °F /  -7.9 °C 29.61in /  1002.6hPa SSW 4.9mph /  7.9km/h 8.0mph /  12.9km/h 7% 0.00in /  0mm 79.0 W/m2
18:29 89.6 °F /  32 °C 20.5 °F /  -6.4 °C 29.61in /  1002.6hPa WSW 4.0mph /  6.4km/h 8.0mph /  12.9km/h 8% 0.00in /  0mm 39.0 W/m2
18:34 88.9 °F /  31.6 °C 19.9 °F /  -6.7 °C 29.61in /  1002.6hPa SSW 2.9mph /  4.7km/h 8.0mph /  12.9km/h 8% 0.00in /  0mm 35.0 W/m2
18:39 88.2 °F /  31.2 °C 16.3 °F /  -8.7 °C 29.61in /  1002.6hPa SW 4.9mph /  7.9km/h 8.0mph /  12.9km/h 7% 0.00in /  0mm 32.0 W/m2
18:45 87.8 °F /  31 °C 19.2 °F /  -7.1 °C 29.61in /  1002.6hPa South 4.0mph /  6.4km/h 10.0mph /  16.1km/h 8% 0.00in /  0mm 25.0 W/m2
18:50 87.3 °F /  30.7 °C 18.9 °F /  -7.3 °C 29.62in /  1002.9hPa Calm   4.0mph /  6.4km/h 8% 0.00in /  0mm 23.0 W/m2
18:55 86.7 °F /  30.4 °C 18.3 °F /  -7.6 °C 29.62in /  1002.9hPa SE 2.9mph /  4.7km/h 10.0mph /  16.1km/h 8% 0.00in /  0mm 18.0 W/m2
19:00 86.4 °F /  30.2 °C 18.1 °F /  -7.7 °C 29.62in /  1002.9hPa Calm   4.0mph /  6.4km/h 8% 0.00in /  0mm 14.0 W/m2
19:05 86.0 °F /  30 °C 17.8 °F /  -7.9 °C 29.62in /  1002.9hPa SE 0.9mph /  1.4km/h 4.0mph /  6.4km/h 8% 0.00in /  0mm 12.0 W/m2
19:10 85.6 °F /  29.8 °C 17.6 °F /  -8 °C 29.62in /  1002.9hPa South 2.0mph /  3.2km/h 2.0mph /  3.2km/h 8% 0.00in /  0mm 9.0 W/m2
19:15 85.3 °F /  29.6 °C 17.2 °F /  -8.2 °C 29.62in /  1002.9hPa Calm   6.0mph /  9.7km/h 8% 0.00in /  0mm 5.0 W/m2
19:20 84.7 °F /  29.3 °C 16.9 °F /  -8.4 °C 29.63in /  1003.3hPa SSE 2.0mph /  3.2km/h 6.0mph /  9.7km/h 8% 0.00in /  0mm 0.0 W/m2
19:26 84.4 °F /  29.1 °C 16.7 °F /  -8.5 °C 29.63in /  1003.3hPa SSW 2.9mph /  4.7km/h 5.0mph /  8km/h 8% 0.00in /  0mm 0.0 W/m2
19:31 84.0 °F /  28.9 °C 16.3 °F /  -8.7 °C 29.63in /  1003.3hPa Calm   3.0mph /  4.8km/h 8% 0.00in /  0mm 0.0 W/m2
19:36 83.7 °F /  28.7 °C 13.1 °F /  -10.5 °C 29.64in /  1003.6hPa WSW 2.0mph /  3.2km/h 5.0mph /  8km/h 7% 0.00in /  0mm 0.0 W/m2
19:41 83.1 °F /  28.4 °C 15.8 °F /  -9 °C 29.64in /  1003.6hPa SSE 0.9mph /  1.4km/h 2.0mph /  3.2km/h 8% 0.00in /  0mm 0.0 W/m2
19:46 82.9 °F /  28.3 °C 15.6 °F /  -9.1 °C 29.64in /  1003.6hPa Calm   1.0mph /  1.6km/h 8% 0.00in /  0mm 0.0 W/m2
19:51 82.4 °F /  28 °C 15.3 °F /  -9.3 °C 29.65in /  1003.9hPa West 0.9mph /  1.4km/h 2.0mph /  3.2km/h 8% 0.00in /  0mm 0.0 W/m2
19:56 81.9 °F /  27.7 °C 14.7 °F /  -9.6 °C 29.65in /  1003.9hPa Calm   2.0mph /  3.2km/h 8% 0.00in /  0mm 0.0 W/m2
20:01 81.5 °F /  27.5 °C 17.2 °F /  -8.2 °C 29.65in /  1003.9hPa West 2.0mph /  3.2km/h 3.0mph /  4.8km/h 9% 0.00in /  0mm 0.0 W/m2
20:06 81.1 °F /  27.3 °C 19.4 °F /  -7 °C 29.65in /  1003.9hPa Calm   2.0mph /  3.2km/h 10% 0.00in /  0mm 0.0 W/m2
20:11 80.8 °F /  27.1 °C 21.4 °F /  -5.9 °C 29.66in /  1004.3hPa Calm   1.0mph /  1.6km/h 11% 0.00in /  0mm 0.0 W/m2
20:16 80.4 °F /  26.9 °C 25.2 °F /  -3.8 °C 29.66in /  1004.3hPa WSW 4.0mph /  6.4km/h 9.0mph /  14.5km/h 13% 0.00in /  0mm 0.0 W/m2
20:22 80.1 °F /  26.7 °C 24.8 °F /  -4 °C 29.67in /  1004.6hPa WSW 4.0mph /  6.4km/h 14.0mph /  22.5km/h 13% 0.00in /  0mm 0.0 W/m2
20:27 79.9 °F /  26.6 °C 26.4 °F /  -3.1 °C 29.67in /  1004.6hPa SSW 2.9mph /  4.7km/h 10.0mph /  16.1km/h 14% 0.00in /  0mm 0.0 W/m2
20:32 79.3 °F /  26.3 °C 27.7 °F /  -2.4 °C 29.67in /  1004.6hPa SW 6.9mph /  11.1km/h 10.0mph /  16.1km/h 15% 0.00in /  0mm 0.0 W/m2
20:37 79.0 °F /  26.1 °C 28.9 °F /  -1.7 °C 29.67in /  1004.6hPa SW 4.9mph /  7.9km/h 8.0mph /  12.9km/h 16% 0.00in /  0mm 0.0 W/m2
20:42 78.6 °F /  25.9 °C 28.8 °F /  -1.8 °C 29.68in /  1005hPa SW 2.0mph /  3.2km/h 7.0mph /  11.3km/h 16% 0.00in /  0mm 0.0 W/m2
20:47 78.3 °F /  25.7 °C 28.4 °F /  -2 °C 29.68in /  1005hPa SW 2.9mph /  4.7km/h 8.0mph /  12.9km/h 16% 0.00in /  0mm 0.0 W/m2
20:52 78.1 °F /  25.6 °C 29.7 °F /  -1.3 °C 29.68in /  1005hPa South 6.9mph /  11.1km/h 8.0mph /  12.9km/h 17% 0.00in /  0mm 0.0 W/m2
20:58 77.7 °F /  25.4 °C 29.5 °F /  -1.4 °C 29.68in /  1005hPa SW 0.9mph /  1.4km/h 5.0mph /  8km/h 17% 0.00in /  0mm 0.0 W/m2
21:03 77.5 °F /  25.3 °C 29.3 °F /  -1.5 °C 29.69in /  1005.3hPa SW 6.0mph /  9.7km/h 9.0mph /  14.5km/h 17% 0.00in /  0mm 0.0 W/m2
21:08 77.4 °F /  25.2 °C 30.6 °F /  -0.8 °C 29.69in /  1005.3hPa Calm   2.0mph /  3.2km/h 18% 0.00in /  0mm 0.0 W/m2
21:13 77.2 °F /  25.1 °C 30.4 °F /  -0.9 °C 29.70in /  1005.6hPa West 2.0mph /  3.2km/h 9.0mph /  14.5km/h 18% 0.00in /  0mm 0.0 W/m2
21:16 76.8 °F /  24.9 °C 31.5 °F /  -0.3 °C 29.70in /  1005.6hPa West 6.0mph /  9.7km/h 10.0mph /  16.1km/h 19% 0.00in /  0mm 0.0 W/m2
21:26 76.3 °F /  24.6 °C 30.9 °F /  -0.6 °C 29.70in /  1005.6hPa SSW 2.9mph /  4.7km/h 5.0mph /  8km/h 19% 0.00in /  0mm 0.0 W/m2
21:31 75.9 °F /  24.4 °C 32.0 °F /  0 °C 29.70in /  1005.6hPa WSW 2.0mph /  3.2km/h 3.0mph /  4.8km/h 20% 0.00in /  0mm 0.0 W/m2
21:36 75.7 °F /  24.3 °C 31.8 °F /  -0.1 °C 29.70in /  1005.6hPa WSW 2.0mph /  3.2km/h 3.0mph /  4.8km/h 20% 0.00in /  0mm 0.0 W/m2
21:41 75.6 °F /  24.2 °C 30.4 °F /  -0.9 °C 29.70in /  1005.6hPa SSE 0.9mph /  1.4km/h 4.0mph /  6.4km/h 19% 0.00in /  0mm 0.0 W/m2
21:46 75.4 °F /  24.1 °C 30.2 °F /  -1 °C 29.70in /  1005.6hPa Calm   2.0mph /  3.2km/h 19% 0.00in /  0mm 0.0 W/m2
21:52 75.2 °F /  24 °C 31.5 °F /  -0.3 °C 29.70in /  1005.6hPa Calm   1.0mph /  1.6km/h 20% 0.00in /  0mm 0.0 W/m2
21:57 75.0 °F /  23.9 °C 31.3 °F /  -0.4 °C 29.70in /  1005.6hPa Calm     20% 0.00in /  0mm 0.0 W/m2
22:02 74.8 °F /  23.8 °C 31.1 °F /  -0.5 °C 29.70in /  1005.6hPa Calm   2.0mph /  3.2km/h 20% 0.00in /  0mm 0.0 W/m2
22:08 74.5 °F /  23.6 °C 30.7 °F /  -0.7 °C 29.70in /  1005.6hPa Calm     20% 0.00in /  0mm 0.0 W/m2
22:13 74.1 °F /  23.4 °C 31.6 °F /  -0.2 °C 29.70in /  1005.6hPa Calm     21% 0.00in /  0mm 0.0 W/m2
22:18 73.6 °F /  23.1 °C 31.3 °F /  -0.4 °C 29.70in /  1005.6hPa Calm     21% 0.00in /  0mm 0.0 W/m2
22:24 73.0 °F /  22.8 °C 32.0 °F /  0 °C 29.70in /  1005.6hPa Calm     22% 0.00in /  0mm 0.0 W/m2
22:29 72.7 °F /  22.6 °C 31.6 °F /  -0.2 °C 29.70in /  1005.6hPa Calm     22% 0.00in /  0mm 0.0 W/m2
22:34 72.1 °F /  22.3 °C 31.1 °F /  -0.5 °C 29.71in /  1006hPa SE 0.9mph /  1.4km/h 2.0mph /  3.2km/h 22% 0.00in /  0mm 0.0 W/m2
22:39 71.8 °F /  22.1 °C 32.0 °F /  0 °C 29.71in /  1006hPa SE 0.9mph /  1.4km/h 2.0mph /  3.2km/h 23% 0.00in /  0mm 0.0 W/m2
22:49 71.2 °F /  21.8 °C 31.5 °F /  -0.3 °C 29.71in /  1006hPa SE 2.0mph /  3.2km/h 5.0mph /  8km/h 23% 0.00in /  0mm 0.0 W/m2
22:54 71.4 °F /  21.9 °C 32.7 °F /  0.4 °C 29.71in /  1006hPa SSW 2.9mph /  4.7km/h 6.0mph /  9.7km/h 24% 0.00in /  0mm 0.0 W/m2
22:59 71.8 °F /  22.1 °C 33.1 °F /  0.6 °C 29.71in /  1006hPa SSW 2.9mph /  4.7km/h 4.0mph /  6.4km/h 24% 0.00in /  0mm 0.0 W/m2
23:04 71.8 °F /  22.1 °C 33.1 °F /  0.6 °C 29.71in /  1006hPa Calm   2.0mph /  3.2km/h 24% 0.00in /  0mm 0.0 W/m2
23:09 71.8 °F /  22.1 °C 33.1 °F /  0.6 °C 29.71in /  1006hPa SW 0.9mph /  1.4km/h 5.0mph /  8km/h 24% 0.00in /  0mm 0.0 W/m2
23:14 72.0 °F /  22.2 °C 33.3 °F /  0.7 °C 29.71in /  1006hPa SSE 0.9mph /  1.4km/h 7.0mph /  11.3km/h 24% 0.00in /  0mm 0.0 W/m2
23:20 72.0 °F /  22.2 °C 33.3 °F /  0.7 °C 29.70in /  1005.6hPa Calm   6.0mph /  9.7km/h 24% 0.00in /  0mm 0.0 W/m2
23:25 72.0 °F /  22.2 °C 33.3 °F /  0.7 °C 29.70in /  1005.6hPa West 2.9mph /  4.7km/h 3.0mph /  4.8km/h 24% 0.00in /  0mm 0.0 W/m2
23:30 72.0 °F /  22.2 °C 33.3 °F /  0.7 °C 29.70in /  1005.6hPa Calm   5.0mph /  8km/h 24% 0.00in /  0mm 0.0 W/m2
23:36 71.8 °F /  22.1 °C 33.1 °F /  0.6 °C 29.70in /  1005.6hPa Calm   1.0mph /  1.6km/h 24% 0.00in /  0mm 0.0 W/m2
23:41 71.8 °F /  22.1 °C 33.1 °F /  0.6 °C 29.70in /  1005.6hPa Calm     24% 0.00in /  0mm 0.0 W/m2
23:46 71.4 °F /  21.9 °C 32.7 °F /  0.4 °C 29.70in /  1005.6hPa Calm     24% 0.00in /  0mm 0.0 W/m2
23:51 71.1 °F /  21.7 °C 32.4 °F /  0.2 °C 29.70in /  1005.6hPa SE 0.9mph /  1.4km/h 4.0mph /  6.4km/h 24% 0.00in /  0mm 0.0 W/m2
23:56 70.9 °F /  21.6 °C 32.4 °F /  0.2 °C 29.70in /  1005.6hPa Calm   2.0mph /  3.2km/h 24% 0.00in /  0mm 0.0 W/m2
Olympia, Windhoek, Namibia
Compliments of Weather Underground - 3.25 mb